Time;durP1;ratioP1;P1;durP2;ratioP2;P2;SDS_P1;SDS_P2;PMS_P1;PMS_P2;Temp;Humidity;BMP_temperature;BMP_pressure;BME280_temperature;BME280_humidity;BME280_pressure;Samples;Min_cycle;Max_cycle;Signal;HPM_P1;HPM_P2
2022/01/22 00:00:18;;;;;;;5.82;4.57;;;6.70;69.40;;;;;;4999296;28;20042;-68
2022/01/22 00:02:44;;;;;;;7.95;4.55;;;6.70;69.20;;;;;;5000742;28;20113;-69
2022/01/22 00:05:11;;;;;;;7.78;4.75;;;6.80;69.50;;;;;;5000435;28;20030;-69
2022/01/22 00:07:37;;;;;;;7.20;4.57;;;6.70;69.10;;;;;;4999021;28;20034;-70
2022/01/22 00:10:12;;;;;;;7.07;4.72;;;6.70;69.30;;;;;;4996587;28;20102;-70
2022/01/22 00:15:09;;;;;;;7.38;4.45;;;6.60;69.30;;;;;;4997379;28;20030;-69
2022/01/22 00:17:35;;;;;;;7.88;4.82;;;6.60;69.30;;;;;;4997519;28;20027;-69
2022/01/22 00:20:01;;;;;;;9.43;5.30;;;6.60;69.60;;;;;;4997631;28;20073;-69
2022/01/22 00:22:31;;;;;;;8.10;5.25;;;6.60;69.50;;;;;;4997895;28;20070;-69
2022/01/22 00:24:59;;;;;;;10.43;5.63;;;6.60;69.30;;;;;;4996404;28;20506;-68
2022/01/22 00:27:26;;;;;;;8.45;5.25;;;6.50;69.30;;;;;;5001992;28;20029;-68
2022/01/22 00:29:52;;;;;;;8.25;5.50;;;6.50;69.40;;;;;;4999867;28;20031;-68
2022/01/22 00:32:18;;;;;;;8.35;5.18;;;6.50;69.30;;;;;;4997585;28;20042;-68
2022/01/22 00:34:44;;;;;;;7.75;5.03;;;6.40;69.30;;;;;;4996199;28;20034;-69
2022/01/22 00:37:10;;;;;;;7.95;5.03;;;6.40;69.40;;;;;;4997299;28;20050;-68
2022/01/22 00:39:37;;;;;;;7.80;5.07;;;6.40;69.50;;;;;;4994812;28;20030;-69
2022/01/22 00:42:09;;;;;;;8.23;5.10;;;6.40;69.40;;;;;;4996841;28;20109;-69
2022/01/22 00:44:34;;;;;;;8.25;5.00;;;6.40;69.80;;;;;;4997236;28;20501;-68
2022/01/22 00:47:02;;;;;;;7.90;4.47;;;6.40;69.40;;;;;;4997272;28;20063;-68
2022/01/22 00:49:28;;;;;;;9.57;5.30;;;6.30;69.30;;;;;;4997079;28;20034;-68
2022/01/22 00:51:54;;;;;;;7.38;4.70;;;6.30;69.50;;;;;;4995481;28;20110;-69
2022/01/22 00:54:20;;;;;;;6.85;4.78;;;6.20;69.70;;;;;;4996144;28;20101;-68
2022/01/22 00:56:45;;;;;;;8.63;4.57;;;6.20;69.70;;;;;;4996577;28;20397;-69
2022/01/22 00:59:11;;;;;;;7.13;4.75;;;6.20;69.70;;;;;;4997019;28;20039;-68
2022/01/22 01:01:37;;;;;;;8.13;4.85;;;6.10;69.80;;;;;;4996905;28;20450;-69
2022/01/22 01:04:03;;;;;;;8.43;4.63;;;6.10;69.80;;;;;;4994855;28;20030;-70
2022/01/22 01:06:29;;;;;;;9.02;5.05;;;6.10;69.80;;;;;;4994111;28;20023;-70
2022/01/22 01:08:55;;;;;;;9.07;5.40;;;6.10;69.70;;;;;;4996816;28;20026;-68
2022/01/22 01:11:24;;;;;;;8.43;5.05;;;6.00;69.80;;;;;;4996598;28;20400;-69
2022/01/22 01:13:56;;;;;;;8.05;5.32;;;6.10;70.00;;;;;;4996722;28;20030;-69
2022/01/22 01:33:06;;;;;;;8.38;4.97;;;5.90;70.00;;;;;;4996465;28;20044;-70
2022/01/22 01:35:29;;;;;;;6.80;4.93;;;5.90;70.10;;;;;;4995750;28;20042;-69
2022/01/22 01:37:57;;;;;;;9.13;5.25;;;5.90;70.00;;;;;;4996402;28;20041;-69
2022/01/22 01:40:24;;;;;;;11.88;5.82;;;5.80;70.10;;;;;;4996010;28;20030;-70
2022/01/22 01:45:16;;;;;;;8.50;5.07;;;5.80;70.00;;;;;;4995654;28;20026;-68
2022/01/22 01:47:44;;;;;;;8.02;4.82;;;5.80;70.30;;;;;;4995914;28;20592;-68
2022/01/22 01:50:10;;;;;;;8.05;5.18;;;5.80;70.00;;;;;;4996060;28;20060;-68
2022/01/22 01:52:45;;;;;;;8.05;5.18;;;5.70;69.90;;;;;;4996182;28;20049;-68
2022/01/22 01:55:19;;;;;;;7.80;5.07;;;5.70;70.00;;;;;;4995659;28;20485;-70
2022/01/22 01:57:46;;;;;;;8.48;5.40;;;5.60;70.90;;;;;;4993806;28;20397;-70
2022/01/22 02:00:17;;;;;;;9.88;5.60;;;5.60;70.50;;;;;;4995097;28;20381;-69
2022/01/22 02:02:45;;;;;;;10.50;5.70;;;5.60;70.40;;;;;;4995635;28;20029;-69
2022/01/22 02:05:12;;;;;;;8.95;5.70;;;5.60;70.60;;;;;;4995725;28;20033;-69
2022/01/22 02:07:40;;;;;;;9.73;5.85;;;5.60;70.50;;;;;;4995553;28;20037;-70
2022/01/22 02:10:08;;;;;;;9.48;5.85;;;5.60;70.60;;;;;;4995372;28;20030;-70
2022/01/22 02:26:16;;;;;;;10.95;5.40;;;5.50;70.50;;;;;;4954538;28;20027;-70
2022/01/22 02:28:47;;;;;;;7.95;5.18;;;5.50;70.80;;;;;;4961626;28;20031;-70
2022/01/22 02:33:54;;;;;;;7.68;4.80;;;5.40;70.70;;;;;;4952165;28;20036;-70
2022/01/22 02:36:31;;;;;;;7.50;4.55;;;5.40;71.10;;;;;;4965135;28;20062;-69
2022/01/22 02:41:28;;;;;;;7.18;4.38;;;5.50;71.10;;;;;;4954055;28;20031;-70
2022/01/22 02:43:55;;;;;;;7.07;4.22;;;5.60;71.30;;;;;;4954184;28;20112;-69
2022/01/22 02:46:24;;;;;;;6.28;4.22;;;5.70;71.40;;;;;;4954449;28;20050;-69
2022/01/22 02:48:50;;;;;;;8.55;4.70;;;5.60;70.90;;;;;;4952153;28;20049;-69
2022/01/22 02:51:16;;;;;;;8.18;4.40;;;5.70;70.70;;;;;;4953609;28;20078;-69
2022/01/22 02:53:42;;;;;;;8.10;4.22;;;5.70;70.80;;;;;;4953880;28;20035;-70
2022/01/22 02:56:08;;;;;;;7.15;4.45;;;5.70;70.90;;;;;;4959482;28;20083;-69
2022/01/22 02:58:34;;;;;;;6.30;3.70;;;5.70;70.90;;;;;;4993745;28;20567;-69
2022/01/22 03:01:00;;;;;;;6.40;4.20;;;5.80;70.90;;;;;;4992770;28;20527;-69
2022/01/22 03:03:26;;;;;;;5.40;3.88;;;5.70;70.80;;;;;;4993158;28;20023;-69
2022/01/22 03:05:51;;;;;;;6.90;3.83;;;5.80;70.70;;;;;;4993740;28;20117;-69
2022/01/22 03:08:19;;;;;;;7.60;4.20;;;5.80;71.00;;;;;;4994591;28;20110;-70
2022/01/22 03:10:49;;;;;;;9.20;4.30;;;5.90;71.10;;;;;;4994927;28;20412;-69
2022/01/22 03:16:13;;;;;;;11.10;6.35;;;6.00;71.30;;;;;;4994190;28;20040;-69
2022/01/22 03:18:50;;;;;;;9.05;5.15;;;6.10;70.70;;;;;;5007996;28;20037;-69
2022/01/22 03:29:18;;;;;;;8.43;5.68;;;6.10;70.50;;;;;;4996772;28;20518;-70
2022/01/22 03:31:44;;;;;;;7.38;5.22;;;6.00;70.70;;;;;;5003837;28;20113;-70
2022/01/22 03:34:09;;;;;;;8.40;5.35;;;6.00;70.90;;;;;;5012624;28;20105;-70
2022/01/22 03:36:35;;;;;;;9.15;5.47;;;6.00;71.70;;;;;;5011544;28;20112;-70
2022/01/22 03:39:04;;;;;;;7.45;4.80;;;6.10;71.00;;;;;;5007537;28;20088;-70
2022/01/22 03:41:30;;;;;;;8.68;5.07;;;5.90;71.00;;;;;;5004939;28;20027;-69
2022/01/22 03:43:56;;;;;;;9.07;5.65;;;6.00;71.20;;;;;;4999752;28;20029;-69
2022/01/22 03:46:22;;;;;;;10.50;5.50;;;6.00;71.50;;;;;;4998839;28;20492;-69
2022/01/22 03:48:48;;;;;;;6.72;4.60;;;6.10;71.20;;;;;;4998687;28;20105;-70
2022/01/22 03:51:13;;;;;;;9.30;5.57;;;6.10;71.00;;;;;;5000099;28;20048;-70
2022/01/22 03:53:39;;;;;;;8.60;5.30;;;6.20;71.40;;;;;;5000793;28;20030;-70
2022/01/22 03:56:07;;;;;;;9.60;6.20;;;6.10;70.90;;;;;;5000789;28;20475;-70
2022/01/22 03:58:36;;;;;;;7.78;4.88;;;6.10;71.00;;;;;;4999520;28;20397;-69
2022/01/22 04:02:10;;;;;;;7.50;5.07;;;6.10;72.30;;;;;;4996201;28;20033;-70
2022/01/22 04:04:14;;;;;;;6.85;4.60;;;6.20;71.30;;;;;;4997148;28;20556;-70
2022/01/22 04:09:17;;;;;;;7.18;4.40;;;6.20;71.20;;;;;;4997342;28;20492;-70
2022/01/22 04:11:45;;;;;;;8.55;4.70;;;6.20;71.40;;;;;;4998058;28;20113;-69
2022/01/22 04:14:24;;;;;;;6.85;4.80;;;6.20;71.20;;;;;;4998033;28;20029;-69
2022/01/22 04:25:05;;;;;;;8.27;4.60;;;6.30;71.50;;;;;;4996530;28;20417;-70
2022/01/22 04:27:30;;;;;;;7.80;4.50;;;6.30;71.60;;;;;;4999415;28;20027;-70
2022/01/22 04:29:58;;;;;;;8.90;4.63;;;6.30;71.50;;;;;;5003346;28;20048;-70
2022/01/22 04:32:25;;;;;;;7.75;4.57;;;6.30;71.60;;;;;;5004363;28;20121;-69
2022/01/22 04:34:51;;;;;;;11.05;6.63;;;6.40;71.70;;;;;;4999620;28;20611;-70
2022/01/22 04:37:20;;;;;;;6.90;4.43;;;6.40;71.40;;;;;;4997297;28;20113;-69
2022/01/22 04:39:47;;;;;;;6.07;3.95;;;6.40;71.30;;;;;;4997248;28;20121;-70
2022/01/22 04:42:14;;;;;;;8.82;4.28;;;6.40;71.30;;;;;;4999209;28;20022;-70
2022/01/22 04:44:51;;;;;;;6.47;3.63;;;6.40;71.40;;;;;;5000271;28;20078;-70
2022/01/22 04:55:29;;;;;;;7.95;3.88;;;6.50;71.20;;;;;;5003970;28;20029;-70
2022/01/22 04:57:55;;;;;;;6.30;3.53;;;6.50;71.20;;;;;;4997040;28;20026;-69
2022/01/22 05:00:21;;;;;;;6.78;4.00;;;6.50;71.30;;;;;;4998962;28;20034;-69
2022/01/22 05:02:47;;;;;;;5.78;3.55;;;6.50;71.20;;;;;;4999818;28;20616;-70
2022/01/22 05:05:12;;;;;;;5.90;3.38;;;6.50;71.20;;;;;;4999474;28;20042;-70
2022/01/22 05:07:38;;;;;;;5.70;3.42;;;6.50;71.40;;;;;;4999561;28;20026;-69
2022/01/22 05:10:05;;;;;;;6.05;3.50;;;6.50;71.50;;;;;;4995691;28;20061;-70
2022/01/22 05:12:31;;;;;;;6.90;3.38;;;6.50;71.50;;;;;;4998478;28;20062;-70
2022/01/22 05:14:57;;;;;;;6.53;3.22;;;6.50;71.10;;;;;;4998303;28;20062;-69
2022/01/22 05:17:22;;;;;;;6.50;3.15;;;6.60;71.80;;;;;;4999673;28;20026;-70
2022/01/22 05:20:03;;;;;;;5.03;3.20;;;6.60;71.10;;;;;;4999140;28;20041;-69
2022/01/22 05:25:23;;;;;;;4.53;3.20;;;6.60;71.20;;;;;;4997220;28;20033;-70
2022/01/22 05:38:23;;;;;;;6.07;3.97;;;6.50;71.40;;;;;;4999404;28;20102;-69
2022/01/22 05:40:49;;;;;;;6.10;3.97;;;6.50;71.20;;;;;;4999044;28;20116;-69
2022/01/22 05:43:15;;;;;;;7.47;3.90;;;6.50;71.60;;;;;;4995861;28;20022;-69
2022/01/22 05:45:42;;;;;;;6.28;4.07;;;6.50;71.50;;;;;;4997188;28;20077;-69
2022/01/22 05:48:07;;;;;;;5.18;3.85;;;6.50;71.70;;;;;;4997355;28;20038;-69
2022/01/22 05:50:45;;;;;;;5.18;3.83;;;6.50;71.70;;;;;;4999179;28;20038;-70
2022/01/22 06:01:16;;;;;;;7.75;4.82;;;6.60;71.40;;;;;;4995850;28;20029;-70
2022/01/22 06:03:44;;;;;;;12.60;8.63;;;6.60;71.20;;;;;;4993788;28;20056;-69
2022/01/22 06:06:10;;;;;;;8.43;4.55;;;6.60;71.40;;;;;;4995501;28;20021;-70
2022/01/22 06:08:42;;;;;;;7.53;3.80;;;6.60;71.30;;;;;;4996151;28;20034;-70
2022/01/22 06:11:09;;;;;;;9.02;4.22;;;6.60;71.40;;;;;;4995899;28;20015;-70
2022/01/22 06:13:53;;;;;;;5.88;4.25;;;6.60;71.60;;;;;;4995990;28;20141;-70
2022/01/22 06:16:22;;;;;;;5.80;3.60;;;6.60;71.50;;;;;;4995753;28;20026;-70
2022/01/22 06:18:49;;;;;;;7.68;4.15;;;6.60;71.50;;;;;;4993766;28;20128;-70
2022/01/22 06:21:15;;;;;;;5.70;3.70;;;6.60;71.70;;;;;;4995441;28;20023;-70
2022/01/22 06:23:41;;;;;;;6.50;3.92;;;6.60;71.90;;;;;;4995609;28;20045;-69
2022/01/22 06:26:07;;;;;;;6.38;4.20;;;6.70;72.00;;;;;;4995774;28;20485;-70
2022/01/22 06:28:34;;;;;;;6.45;3.65;;;6.70;71.80;;;;;;4995547;28;20058;-70
2022/01/22 06:31:01;;;;;;;5.75;3.67;;;6.70;71.90;;;;;;4994373;28;20046;-70
2022/01/22 06:33:27;;;;;;;6.95;4.13;;;6.80;71.80;;;;;;5012593;28;20536;-69
2022/01/22 06:35:53;;;;;;;6.72;3.95;;;6.70;71.80;;;;;;4996613;28;20050;-70
2022/01/22 06:38:19;;;;;;;6.60;3.92;;;6.70;72.30;;;;;;4995339;28;20038;-70
2022/01/22 06:43:31;;;;;;;4.95;3.42;;;6.80;72.10;;;;;;4995799;28;20041;-69
2022/01/22 06:45:57;;;;;;;7.20;4.18;;;6.80;72.30;;;;;;4993578;28;20493;-69
2022/01/22 06:48:23;;;;;;;6.25;3.88;;;6.80;72.20;;;;;;4994094;28;20030;-71
2022/01/22 06:50:49;;;;;;;7.28;4.30;;;6.80;72.20;;;;;;4995113;28;20023;-69
2022/01/22 06:53:15;;;;;;;6.47;3.58;;;6.80;72.30;;;;;;4994037;28;20030;-70
2022/01/22 06:55:44;;;;;;;6.75;3.80;;;6.80;72.40;;;;;;4995201;28;20026;-69
2022/01/22 06:58:11;;;;;;;5.55;3.85;;;6.80;72.30;;;;;;4995076;28;20045;-70
2022/01/22 07:00:36;;;;;;;4.95;3.38;;;6.90;72.40;;;;;;4992619;28;20018;-70
2022/01/22 07:03:03;;;;;;;5.95;3.88;;;6.80;72.40;;;;;;5009725;28;20026;-70
2022/01/22 07:05:28;;;;;;;4.18;3.13;;;6.90;72.50;;;;;;5002379;28;20087;-69
2022/01/22 07:07:54;;;;;;;4.43;3.30;;;6.90;72.30;;;;;;4998001;28;20029;-69
2022/01/22 07:10:20;;;;;;;6.30;3.03;;;7.00;72.40;;;;;;4995388;28;20026;-70
2022/01/22 07:12:46;;;;;;;4.32;2.75;;;7.00;72.70;;;;;;4995359;28;20034;-69
2022/01/22 07:15:12;;;;;;;5.07;2.95;;;7.00;72.20;;;;;;4997200;28;20033;-69
2022/01/22 07:17:39;;;;;;;5.22;2.85;;;7.10;72.60;;;;;;4997756;28;20046;-69
2022/01/22 07:20:13;;;;;;;6.18;2.95;;;7.00;72.00;;;;;;4997788;28;20030;-69
2022/01/22 07:22:53;;;;;;;6.25;3.00;;;7.00;72.10;;;;;;4997650;28;20506;-70
2022/01/22 07:25:19;;;;;;;4.65;2.58;;;7.00;72.50;;;;;;4995083;28;20069;-70
2022/01/22 07:27:45;;;;;;;6.43;3.05;;;7.10;72.10;;;;;;4992915;28;20116;-69
2022/01/22 07:30:12;;;;;;;4.13;2.72;;;7.00;72.00;;;;;;4992836;28;20037;-69
2022/01/22 07:32:42;;;;;;;4.88;2.53;;;7.10;72.10;;;;;;4994850;28;20034;-69
2022/01/22 07:35:08;;;;;;;4.80;2.60;;;7.10;71.80;;;;;;4993640;28;20058;-68
2022/01/22 07:37:36;;;;;;;4.53;2.58;;;7.00;71.70;;;;;;4994997;28;20022;-68
2022/01/22 07:40:04;;;;;;;3.67;2.30;;;7.10;71.90;;;;;;4992506;28;20108;-68
2022/01/22 07:42:30;;;;;;;4.85;2.75;;;7.10;71.60;;;;;;4992443;28;20018;-69
2022/01/22 07:44:56;;;;;;;6.18;2.80;;;7.10;71.70;;;;;;4994690;28;20121;-69
2022/01/22 07:47:21;;;;;;;5.75;2.80;;;7.10;71.50;;;;;;4994671;28;20039;-68
2022/01/22 07:49:47;;;;;;;6.85;3.00;;;7.10;71.60;;;;;;4994814;28;20045;-68
2022/01/22 07:52:13;;;;;;;6.15;2.80;;;7.10;71.80;;;;;;4993462;28;20569;-69
2022/01/22 07:54:38;;;;;;;4.88;2.72;;;7.10;71.50;;;;;;4992283;28;20117;-69
2022/01/22 07:57:04;;;;;;;5.65;2.55;;;7.20;71.70;;;;;;4994385;28;20030;-69
2022/01/22 07:59:30;;;;;;;5.25;2.65;;;7.20;71.80;;;;;;4994623;28;20030;-68
2022/01/22 08:01:56;;;;;;;4.15;2.78;;;7.30;71.80;;;;;;4993367;28;20041;-69
2022/01/22 08:04:25;;;;;;;5.68;2.45;;;7.30;71.40;;;;;;4994633;28;20025;-69
2022/01/22 08:06:52;;;;;;;4.82;2.70;;;7.20;71.20;;;;;;4991100;28;20099;-68
2022/01/22 08:09:19;;;;;;;4.28;2.65;;;7.20;71.50;;;;;;4996454;28;20089;-70
2022/01/22 08:11:44;;;;;;;4.75;2.60;;;7.20;71.40;;;;;;4996984;28;20046;-70
2022/01/22 08:14:10;;;;;;;5.00;2.60;;;7.20;71.30;;;;;;4996984;28;20088;-69
2022/01/22 08:16:36;;;;;;;5.63;2.50;;;7.20;71.50;;;;;;5000162;28;20020;-69
2022/01/22 08:19:03;;;;;;;5.93;2.40;;;7.30;71.80;;;;;;4996824;28;20416;-70
2022/01/22 08:21:28;;;;;;;4.63;2.38;;;7.30;71.70;;;;;;4999684;28;20194;-69
2022/01/22 08:23:54;;;;;;;5.65;2.47;;;7.30;71.50;;;;;;4999431;28;20034;-70
2022/01/22 08:26:25;;;;;;;4.40;2.55;;;7.30;71.50;;;;;;4998557;28;20031;-70
2022/01/22 08:28:54;;;;;;;4.38;2.65;;;7.40;71.80;;;;;;5000110;28;20076;-70
2022/01/22 08:36:34;;;;;;;4.15;2.47;;;7.40;71.80;;;;;;5011941;28;20064;-69
2022/01/22 08:39:00;;;;;;;5.47;2.85;;;7.40;71.80;;;;;;5001699;28;20038;-69
2022/01/22 08:41:25;;;;;;;5.05;2.78;;;7.50;71.90;;;;;;5004752;28;20026;-70
2022/01/22 08:43:53;;;;;;;4.75;2.97;;;7.50;72.10;;;;;;5010826;28;20030;-71
2022/01/22 08:46:19;;;;;;;6.03;2.80;;;7.50;71.90;;;;;;5001740;28;20026;-69
2022/01/22 08:48:45;;;;;;;5.80;2.65;;;7.50;71.80;;;;;;5007979;28;20018;-70
2022/01/22 08:51:12;;;;;;;4.72;2.75;;;7.50;72.00;;;;;;5002023;28;20033;-69
2022/01/22 08:53:38;;;;;;;6.32;2.80;;;7.50;72.10;;;;;;5005090;28;20029;-69
2022/01/22 08:56:05;;;;;;;5.97;2.65;;;7.60;72.00;;;;;;5009988;28;20045;-69
2022/01/22 08:58:31;;;;;;;4.38;2.13;;;7.50;72.10;;;;;;5009227;28;20037;-69
2022/01/22 09:00:57;;;;;;;5.55;2.60;;;7.60;72.30;;;;;;5008161;28;20029;-69
2022/01/22 09:03:23;;;;;;;7.20;2.50;;;7.60;72.10;;;;;;5002782;28;20033;-69
2022/01/22 09:05:49;;;;;;;4.20;2.58;;;7.60;72.00;;;;;;5004786;28;20526;-69
2022/01/22 09:08:15;;;;;;;3.97;2.15;;;7.70;72.00;;;;;;5007392;28;20476;-69
2022/01/22 09:10:42;;;;;;;5.85;2.35;;;7.70;71.90;;;;;;5006047;28;20060;-69
2022/01/22 09:13:09;;;;;;;3.40;2.03;;;7.70;71.70;;;;;;5011189;28;20039;-69
2022/01/22 09:15:35;;;;;;;4.00;2.05;;;7.70;71.60;;;;;;5009299;28;20431;-70
2022/01/22 09:18:00;;;;;;;5.70;2.33;;;7.80;71.50;;;;;;5004416;28;20034;-69
2022/01/22 09:23:06;;;;;;;4.63;2.42;;;7.80;71.20;;;;;;5001541;28;20100;-69
2022/01/22 09:25:32;;;;;;;5.53;2.78;;;7.90;71.40;;;;;;5011259;28;20068;-70
2022/01/22 09:27:58;;;;;;;5.35;2.83;;;7.90;71.00;;;;;;5000022;28;20587;-70
2022/01/22 09:30:25;;;;;;;6.28;2.60;;;7.90;71.30;;;;;;5004674;28;20030;-70
2022/01/22 09:32:51;;;;;;;3.50;2.38;;;8.00;71.30;;;;;;5001838;28;20061;-69
2022/01/22 09:35:17;;;;;;;5.25;2.38;;;8.00;72.40;;;;;;5007939;28;20457;-69
2022/01/22 09:37:43;;;;;;;6.15;2.45;;;8.00;71.20;;;;;;5016282;28;20404;-69
2022/01/22 09:40:09;;;;;;;5.60;2.50;;;8.00;71.30;;;;;;5010896;28;20031;-69
2022/01/22 09:42:35;;;;;;;5.10;2.03;;;8.10;71.50;;;;;;5008624;28;20037;-69
2022/01/22 09:45:03;;;;;;;5.80;2.72;;;8.10;71.50;;;;;;5000229;28;20030;-69
2022/01/22 09:47:29;;;;;;;4.72;2.90;;;8.10;71.20;;;;;;4999455;28;20030;-69
2022/01/22 09:49:55;;;;;;;5.18;3.08;;;8.20;71.40;;;;;;5009288;28;20492;-69
2022/01/22 09:52:23;;;;;;;5.82;3.25;;;8.20;71.30;;;;;;5000675;28;20046;-69
2022/01/22 09:54:48;;;;;;;8.60;3.60;;;8.20;71.50;;;;;;5005765;28;20101;-70
2022/01/22 09:57:14;;;;;;;5.75;3.42;;;8.30;71.60;;;;;;5000538;28;20142;-70
2022/01/22 09:59:40;;;;;;;6.40;4.40;;;8.30;71.60;;;;;;5003444;28;20046;-70
2022/01/22 10:02:12;;;;;;;5.57;3.80;;;8.30;71.70;;;;;;5004967;28;20489;-70
2022/01/22 10:04:39;;;;;;;7.18;3.78;;;8.40;71.70;;;;;;5000723;28;20034;-70
2022/01/22 10:07:13;;;;;;;5.70;3.58;;;8.40;71.70;;;;;;5010629;28;20034;-69
2022/01/22 10:10:04;;;;;;;6.47;3.83;;;8.50;71.50;;;;;;5008104;28;20049;-69
2022/01/22 10:12:46;;;;;;;6.82;3.70;;;8.40;71.20;;;;;;5007118;28;20057;-69
2022/01/22 10:15:19;;;;;;;6.03;3.45;;;8.50;71.50;;;;;;5000128;28;20496;-69
2022/01/22 10:17:45;;;;;;;;;;;8.50;71.50;;;;;;5003493;28;20022;-69
2022/01/22 10:20:23;;;;;;;6.82;3.17;;;8.50;71.70;;;;;;5005935;28;19964;-70
2022/01/22 10:23:10;;;;;;;5.90;2.90;;;8.60;71.70;;;;;;4999414;28;20057;-70
2022/01/22 10:25:42;;;;;;;5.00;3.10;;;8.60;71.60;;;;;;4998700;28;20022;-69
2022/01/22 10:28:13;;;;;;;5.72;3.42;;;8.60;70.90;;;;;;5007028;28;20492;-69
2022/01/22 10:30:43;;;;;;;4.93;2.97;;;8.70;71.10;;;;;;5007596;28;20105;-69
2022/01/22 10:33:22;;;;;;;6.13;3.35;;;8.70;71.00;;;;;;5008854;28;20422;-69
2022/01/22 10:35:49;;;;;;;5.60;3.08;;;8.80;71.30;;;;;;5002558;28;20083;-69
2022/01/22 10:38:17;;;;;;;8.20;3.83;;;8.90;71.30;;;;;;5004391;28;20162;-70
2022/01/22 10:40:44;;;;;;;7.78;3.50;;;8.90;70.30;;;;;;5003648;28;20500;-70
2022/01/22 10:43:22;;;;;;;5.40;3.58;;;8.80;70.20;;;;;;5009626;28;20022;-69
2022/01/22 10:48:42;;;;;;;4.70;3.10;;;8.90;70.30;;;;;;5007737;28;20026;-69
2022/01/22 10:51:11;;;;;;;5.15;3.45;;;8.90;70.30;;;;;;4998790;28;20022;-70
2022/01/22 10:53:43;;;;;;;5.82;3.40;;;8.80;70.30;;;;;;5002680;28;20029;-69
2022/01/22 10:56:12;;;;;;;5.35;3.47;;;8.80;70.30;;;;;;5006089;28;20025;-69
2022/01/22 10:58:51;;;;;;;5.85;3.72;;;8.90;70.40;;;;;;4999442;28;20409;-70
2022/01/22 11:01:16;;;;;;;5.85;3.63;;;8.90;70.70;;;;;;5008841;28;20036;-69
2022/01/22 11:03:42;;;;;;;5.72;3.55;;;8.90;70.30;;;;;;5011158;28;20030;-70
2022/01/22 11:06:25;;;;;;;7.15;3.75;;;9.00;70.50;;;;;;5002722;28;20129;-70
2022/01/22 11:08:51;;;;;;;4.80;3.45;;;9.00;70.00;;;;;;5000294;28;20069;-70
2022/01/22 11:11:17;;;;;;;6.05;3.35;;;9.00;70.20;;;;;;5001555;28;20030;-70
2022/01/22 11:13:42;;;;;;;6.07;3.30;;;9.00;70.10;;;;;;5009516;28;20113;-70
2022/01/22 11:16:09;;;;;;;4.22;3.05;;;9.10;70.50;;;;;;4999157;28;20030;-69
2022/01/22 11:18:38;;;;;;;6.25;3.20;;;9.10;70.20;;;;;;5004588;28;20026;-70
2022/01/22 11:21:05;;;;;;;6.85;3.67;;;9.10;70.40;;;;;;4998364;28;20045;-69
2022/01/22 11:23:34;;;;;;;4.15;2.90;;;9.10;70.60;;;;;;5002552;28;20022;-76
2022/01/22 11:26:02;;;;;;;4.28;3.25;;;9.10;70.50;;;;;;5008736;28;20026;-76
2022/01/22 11:28:28;;;;;;;4.22;2.65;;;9.20;70.50;;;;;;5010389;28;20034;-77
2022/01/22 11:30:56;;;;;;;6.22;3.00;;;9.30;70.50;;;;;;5006934;28;20045;-76
2022/01/22 11:33:24;;;;;;;3.97;2.75;;;9.40;70.40;;;;;;5001183;28;20026;-76
2022/01/22 11:36:02;;;;;;;5.88;3.10;;;9.40;70.10;;;;;;5009031;28;20084;-79
2022/01/22 11:38:35;;;;;;;3.60;2.80;;;9.30;69.40;;;;;;5015249;28;20103;-66
2022/01/22 11:41:15;;;;;;;5.47;3.08;;;9.30;69.70;;;;;;5012979;28;20026;-68
2022/01/22 11:44:17;;;;;;;5.00;2.95;;;9.30;70.00;;;;;;5016718;28;20100;-69
2022/01/22 11:46:58;;;;;;;5.28;2.92;;;9.30;70.00;;;;;;5004806;28;20030;-68
2022/01/22 11:49:31;;;;;;;4.75;2.88;;;9.30;70.20;;;;;;4994787;28;20157;-70
2022/01/22 11:52:12;;;;;;;4.43;2.60;;;9.30;70.00;;;;;;4997548;28;20127;-71
2022/01/22 11:55:00;;;;;;;4.45;2.60;;;9.40;70.10;;;;;;4998108;28;20101;-71
2022/01/22 11:57:28;;;;;;;3.92;2.13;;;9.40;70.30;;;;;;5000120;28;20473;-71
2022/01/22 12:00:16;;;;;;;5.53;3.10;;;9.60;70.20;;;;;;4999843;28;20034;-71
2022/01/22 12:02:42;;;;;;;6.55;2.92;;;9.60;69.70;;;;;;5005491;28;20033;-69
2022/01/22 12:05:08;;;;;;;3.58;2.70;;;9.60;69.80;;;;;;5004633;28;20025;-70
2022/01/22 12:07:37;;;;;;;5.68;2.92;;;9.60;69.60;;;;;;4997467;28;20034;-69
2022/01/22 12:16:11;;;;;;;5.80;3.42;;;9.60;70.50;;;;;;4955973;28;20122;-72
2022/01/22 12:18:44;;;;;;;5.65;3.05;;;9.60;69.30;;;;;;4973275;28;20062;-69
2022/01/22 12:23:56;;;;;;;6.18;3.05;;;9.50;69.50;;;;;;4966146;28;20031;-70
2022/01/22 12:26:43;;;;;;;5.60;2.78;;;9.60;69.80;;;;;;4968261;28;20497;-70
2022/01/22 12:29:28;;;;;;;3.97;2.90;;;9.70;70.00;;;;;;4965581;28;20035;-75
2022/01/22 12:32:07;;;;;;;6.35;2.83;;;9.60;69.10;;;;;;4970282;28;20035;-76
2022/01/22 12:34:52;;;;;;;5.38;3.03;;;9.50;69.30;;;;;;4975258;28;20059;-74
2022/01/22 12:37:21;;;;;;;5.65;3.17;;;9.50;69.80;;;;;;4976461;28;20035;-75
2022/01/22 12:39:51;;;;;;;6.57;3.30;;;9.60;69.60;;;;;;4979271;28;20038;-75
2022/01/22 12:42:32;;;;;;;5.63;3.25;;;9.60;69.50;;;;;;4978504;28;20069;-75
2022/01/22 12:45:06;;;;;;;6.32;2.58;;;9.60;69.40;;;;;;4970637;28;20042;-77
2022/01/22 12:47:33;;;;;;;4.38;2.78;;;9.50;69.40;;;;;;4969683;28;20500;-78
2022/01/22 12:50:07;;;;;;;5.15;2.60;;;9.50;69.50;;;;;;5004915;28;20521;-75
2022/01/22 12:52:37;;;;;;;5.50;2.85;;;9.40;69.60;;;;;;5018741;28;20026;-74
2022/01/22 12:55:23;;;;;;;4.57;2.53;;;9.40;69.50;;;;;;5009024;28;20030;-75
2022/01/22 12:57:49;;;;;;;4.40;2.25;;;9.40;69.80;;;;;;5005231;28;20592;-75
2022/01/22 13:00:17;;;;;;;6.70;2.30;;;9.50;69.80;;;;;;4996236;28;20121;-74
2022/01/22 13:02:54;;;;;;;3.20;1.90;;;9.50;69.70;;;;;;5016613;28;20034;-74
2022/01/22 13:05:21;;;;;;;5.38;2.08;;;9.50;69.80;;;;;;4996582;28;20057;-75
2022/01/22 13:07:53;;;;;;;4.30;1.98;;;9.50;69.80;;;;;;4996298;28;20081;-74
2022/01/22 13:10:22;;;;;;;6.45;2.33;;;9.50;69.80;;;;;;4995928;28;20373;-74
2022/01/22 13:12:48;;;;;;;3.75;2.28;;;9.50;69.60;;;;;;5003712;28;20065;-74
2022/01/22 13:15:16;;;;;;;4.25;2.20;;;9.50;69.70;;;;;;5006447;28;20049;-75
2022/01/22 13:17:50;;;;;;;6.05;2.60;;;9.50;69.70;;;;;;5015855;28;20787;-75
2022/01/22 13:20:20;;;;;;;4.68;2.42;;;9.60;69.60;;;;;;5019315;28;20419;-75
2022/01/22 13:22:46;;;;;;;4.55;2.28;;;9.50;69.30;;;;;;5019389;28;20013;-74
2022/01/22 13:25:13;;;;;;;7.75;2.45;;;9.50;69.90;;;;;;5018681;28;20041;-74
2022/01/22 13:27:42;;;;;;;6.28;2.67;;;9.50;69.70;;;;;;5022405;28;20128;-74
2022/01/22 13:30:10;;;;;;;3.03;2.00;;;9.50;69.60;;;;;;5009002;28;20392;-75
2022/01/22 13:32:58;;;;;;;3.85;2.50;;;9.50;69.30;;;;;;4999226;28;20026;-74
2022/01/22 13:49:05;;;;;;;2.83;1.83;;;9.60;69.30;;;;;;4972840;28;20454;-74
2022/01/22 13:51:32;;;;;;;3.13;1.67;;;9.60;69.10;;;;;;4978586;28;20033;-74
2022/01/22 13:54:00;;;;;;;3.70;1.70;;;9.60;69.20;;;;;;4971231;28;20046;-75
2022/01/22 13:56:44;;;;;;;2.85;1.88;;;9.60;69.30;;;;;;4970933;28;20046;-73
2022/01/22 13:59:18;;;;;;;3.15;1.77;;;9.60;69.20;;;;;;4970327;28;20034;-66
2022/01/22 14:04:42;;;;;;;3.80;1.60;;;9.60;69.20;;;;;;4932799;29;20047;-72
2022/01/22 14:07:27;;;;;;;3.17;1.80;;;9.60;69.60;;;;;;4932776;29;20519;-73
2022/01/22 14:10:12;;;;;;;2.80;1.33;;;9.60;69.10;;;;;;4931273;29;20046;-74
2022/01/22 14:12:43;;;;;;;5.10;1.27;;;9.50;69.20;;;;;;4929646;29;20032;-68
2022/01/22 14:15:13;;;;;;;2.25;1.50;;;9.60;69.40;;;;;;4988111;28;20483;-65
2022/01/22 14:18:13;;;;;;;6.15;1.70;;;9.60;69.40;;;;;;4990285;28;20049;-66
2022/01/22 14:20:53;;;;;;;4.22;1.65;;;9.70;69.20;;;;;;4989197;28;20069;-65
2022/01/22 14:23:24;;;;;;;3.67;1.70;;;9.70;69.20;;;;;;4988612;28;20030;-66
2022/01/22 14:25:56;;;;;;;3.05;1.70;;;9.70;68.90;;;;;;4988682;28;20034;-66
2022/01/22 14:28:35;;;;;;;4.20;1.85;;;9.70;69.20;;;;;;4988628;28;20149;-66
2022/01/22 14:31:00;;;;;;;3.17;1.73;;;9.70;69.20;;;;;;4988816;28;20050;-65
2022/01/22 14:33:26;;;;;;;3.33;1.70;;;9.70;68.80;;;;;;4989932;28;20034;-65
2022/01/22 14:36:00;;;;;;;3.00;1.48;;;9.70;68.80;;;;;;4989836;28;20050;-67
2022/01/22 14:38:37;;;;;;;4.78;2.05;;;9.70;68.90;;;;;;4990140;28;20034;-65
2022/01/22 14:44:02;;;;;;;3.35;2.17;;;9.70;68.70;;;;;;5004421;28;20049;-66
2022/01/22 14:46:52;;;;;;;7.15;2.50;;;9.70;68.60;;;;;;5004577;28;20038;-65
2022/01/22 14:49:26;;;;;;;3.65;2.35;;;9.70;69.00;;;;;;4995141;28;20025;-67
2022/01/22 14:51:51;;;;;;;6.55;2.33;;;9.70;69.10;;;;;;4993335;28;20030;-67
2022/01/22 14:54:20;;;;;;;4.00;2.17;;;9.80;68.90;;;;;;4998026;28;20033;-67
2022/01/22 14:56:45;;;;;;;4.72;2.35;;;9.70;68.70;;;;;;4996109;28;20173;-67
2022/01/22 14:59:11;;;;;;;4.63;2.55;;;9.70;68.90;;;;;;5000343;28;20117;-67
2022/01/22 15:01:37;;;;;;;5.38;2.50;;;9.80;68.90;;;;;;5010316;28;20098;-67
2022/01/22 15:04:03;;;;;;;3.15;2.33;;;9.70;68.80;;;;;;4999313;28;20030;-66
2022/01/22 15:06:28;;;;;;;7.00;2.25;;;9.70;68.80;;;;;;5004299;28;20034;-66
2022/01/22 15:08:54;;;;;;;4.32;1.95;;;9.70;68.90;;;;;;5000117;28;20026;-66
2022/01/22 15:11:20;;;;;;;4.30;2.22;;;9.70;69.00;;;;;;5001939;28;20116;-66
2022/01/22 15:13:46;;;;;;;3.90;1.70;;;9.70;68.90;;;;;;5008904;28;20038;-66
2022/01/22 15:16:17;;;;;;;5.15;2.40;;;9.60;68.80;;;;;;4999373;28;20048;-66
2022/01/22 15:19:00;;;;;;;4.18;1.85;;;9.60;68.90;;;;;;5005241;28;20088;-66
2022/01/22 15:21:26;;;;;;;3.38;2.00;;;9.60;69.30;;;;;;5000546;28;20026;-66